createdAt,value
2019-05-17T00:00:40.185Z,18.51
2019-05-17T00:01:40.100Z,18.50
2019-05-17T00:02:40.032Z,18.51
2019-05-17T00:03:39.960Z,18.50
2019-05-17T00:04:39.895Z,18.44
2019-05-17T00:05:39.824Z,18.47
2019-05-17T00:06:39.756Z,18.37
2019-05-17T00:07:39.681Z,18.37
2019-05-17T00:08:39.650Z,18.26
2019-05-17T00:09:39.559Z,18.21
2019-05-17T00:10:39.481Z,18.18
2019-05-17T00:11:39.410Z,18.26
2019-05-17T00:12:39.345Z,18.37
2019-05-17T00:13:39.271Z,18.41
2019-05-17T00:14:39.201Z,18.29
2019-05-17T00:15:39.135Z,18.26
2019-05-17T00:16:39.064Z,18.11
2019-05-17T00:17:38.997Z,18.14
2019-05-17T00:18:38.930Z,18.12
2019-05-17T00:19:38.853Z,18.21
2019-05-17T00:20:38.787Z,18.21
2019-05-17T00:21:38.720Z,18.25
2019-05-17T00:22:38.652Z,18.29
2019-05-17T00:23:38.577Z,18.32
2019-05-17T00:24:38.514Z,18.48
2019-05-17T00:25:38.445Z,18.57
2019-05-17T00:26:39.843Z,18.54
2019-05-17T00:27:38.308Z,18.66
2019-05-17T00:28:38.236Z,18.73
2019-05-17T00:29:38.173Z,18.72
2019-05-17T00:30:38.102Z,18.72
2019-05-17T00:31:38.035Z,18.66
2019-05-17T00:32:37.975Z,18.54
2019-05-17T00:33:37.891Z,18.65
2019-05-17T00:34:37.891Z,18.58
2019-05-17T00:35:37.884Z,18.50
2019-05-17T00:36:37.713Z,18.60
2019-05-17T00:37:37.626Z,18.52
2019-05-17T00:38:47.527Z,18.51
2019-05-17T00:39:37.485Z,18.50
2019-05-17T00:40:37.422Z,18.42
2019-05-17T00:41:37.642Z,18.29
2019-05-17T00:42:37.474Z,17.87
2019-05-17T00:43:37.206Z,17.68
2019-05-17T00:44:37.145Z,17.58
2019-05-17T00:45:37.709Z,17.59
2019-05-17T00:46:37.356Z,17.00
2019-05-17T00:47:37.404Z,16.67
2019-05-17T00:48:37.417Z,16.20
2019-05-17T00:49:37.310Z,16.07
2019-05-17T00:50:37.771Z,16.08
2019-05-17T00:51:37.034Z,16.02
2019-05-17T00:52:37.035Z,16.09
2019-05-17T00:53:36.511Z,16.05
2019-05-17T00:54:36.447Z,16.05
2019-05-17T00:55:36.617Z,15.69
2019-05-17T00:56:37.194Z,15.71
2019-05-17T00:57:36.892Z,15.59
2019-05-17T00:58:37.021Z,15.38
2019-05-17T00:59:36.904Z,15.49
2019-05-17T01:00:37.540Z,15.29
2019-05-17T01:01:36.464Z,15.13
2019-05-17T01:02:36.352Z,14.95
2019-05-17T01:03:36.337Z,15.09
2019-05-17T01:04:36.870Z,15.21
2019-05-17T01:05:36.930Z,15.17
2019-05-17T01:06:37.616Z,15.38
2019-05-17T01:07:37.656Z,15.39
2019-05-17T01:08:37.262Z,15.44
2019-05-17T01:09:36.705Z,15.36
2019-05-17T01:10:36.829Z,15.27
2019-05-17T01:11:36.584Z,15.38
2019-05-17T01:12:36.521Z,15.39
2019-05-17T01:13:37.210Z,15.53
2019-05-17T01:14:37.162Z,15.49
2019-05-17T01:15:37.012Z,15.32
2019-05-17T01:16:36.797Z,15.14
2019-05-17T01:17:36.568Z,15.17
2019-05-17T01:18:36.197Z,15.21
2019-05-17T01:19:36.551Z,15.25
2019-05-17T01:20:36.840Z,15.11
2019-05-17T01:21:36.565Z,15.13
2019-05-17T01:22:36.530Z,15.13
2019-05-17T01:23:36.207Z,15.17
2019-05-17T01:24:34.798Z,15.10
2019-05-17T01:25:36.355Z,15.14
2019-05-17T01:26:34.194Z,15.13
2019-05-17T01:27:34.117Z,15.13
2019-05-17T01:28:36.194Z,15.29
2019-05-17T01:29:36.167Z,15.28
2019-05-17T01:30:33.909Z,15.36
2019-05-17T01:31:33.840Z,15.13
2019-05-17T01:32:33.764Z,15.13
2019-05-17T01:33:33.690Z,15.14
2019-05-17T01:34:33.622Z,15.07
2019-05-17T01:35:33.549Z,14.84
2019-05-17T01:36:33.481Z,14.83
2019-05-17T01:37:33.409Z,14.91
2019-05-17T01:38:33.337Z,14.75
2019-05-17T01:39:33.667Z,14.46
2019-05-17T01:40:33.198Z,14.33
2019-05-17T01:41:33.121Z,14.17
2019-05-17T01:42:33.053Z,14.15
2019-05-17T01:43:32.984Z,14.06
2019-05-17T01:44:32.912Z,14.04
2019-05-17T01:45:32.840Z,14.03
2019-05-17T01:46:32.772Z,14.10
2019-05-17T01:47:32.693Z,14.03
2019-05-17T01:48:32.627Z,14.18
2019-05-17T01:49:32.549Z,14.09
2019-05-17T01:50:32.483Z,14.17
2019-05-17T01:51:32.413Z,14.22
2019-05-17T01:52:32.342Z,14.20
2019-05-17T01:53:32.278Z,14.27
2019-05-17T01:54:32.198Z,14.35
2019-05-17T01:55:32.127Z,14.46
2019-05-17T01:56:32.055Z,14.51
2019-05-17T01:57:31.984Z,14.45
2019-05-17T01:58:31.912Z,14.46
2019-05-17T01:59:31.845Z,14.62
2019-05-17T02:00:31.770Z,14.61
2019-05-17T02:01:31.697Z,14.46
2019-05-17T02:02:31.625Z,14.54
2019-05-17T02:03:31.563Z,14.62
2019-05-17T02:04:31.483Z,14.64
2019-05-17T02:05:31.415Z,14.62
2019-05-17T02:06:31.342Z,14.65
2019-05-17T02:07:31.270Z,14.28
2019-05-17T02:08:31.213Z,14.35
2019-05-17T02:09:37.361Z,14.47
2019-05-17T02:10:31.055Z,14.52
2019-05-17T02:11:30.986Z,14.55
2019-05-17T02:12:30.922Z,14.60
2019-05-17T02:13:30.842Z,14.51
2019-05-17T02:14:30.771Z,14.51
2019-05-17T02:15:30.702Z,14.55
2019-05-17T02:16:30.628Z,14.52
2019-05-17T02:17:30.566Z,14.50
2019-05-17T02:18:30.486Z,14.64
2019-05-17T02:19:30.416Z,14.64
2019-05-17T02:20:30.352Z,14.65
2019-05-17T02:21:30.277Z,14.68
2019-05-17T02:22:30.202Z,14.62
2019-05-17T02:23:30.127Z,14.77
2019-05-17T02:24:30.061Z,14.47
2019-05-17T02:25:29.989Z,14.43
2019-05-17T02:26:29.916Z,14.43
2019-05-17T02:27:35.850Z,14.58
2019-05-17T02:28:32.031Z,14.61
2019-05-17T02:29:32.036Z,14.62
2019-05-17T02:30:29.635Z,14.65
2019-05-17T02:31:32.648Z,14.88
2019-05-17T02:32:29.502Z,14.72
2019-05-17T02:33:29.434Z,14.78
2019-05-17T02:34:29.353Z,14.94
2019-05-17T02:35:29.279Z,15.01
2019-05-17T02:36:29.206Z,15.02
2019-05-17T02:37:29.139Z,15.19
2019-05-17T02:38:29.069Z,15.16
2019-05-17T02:39:32.481Z,15.23
2019-05-17T02:40:28.942Z,15.31
2019-05-17T02:41:28.858Z,15.44
2019-05-17T02:42:28.800Z,15.51
2019-05-17T02:43:28.710Z,15.59
2019-05-17T02:44:28.643Z,15.69
2019-05-17T02:45:28.586Z,15.74
2019-05-17T02:46:28.505Z,15.74
2019-05-17T02:47:28.432Z,15.68
2019-05-17T02:48:28.363Z,15.65
2019-05-17T02:49:28.289Z,15.46
2019-05-17T02:50:28.232Z,15.38
2019-05-17T02:51:28.157Z,15.39
2019-05-17T02:52:28.084Z,15.50
2019-05-17T02:53:28.010Z,15.43
2019-05-17T02:54:27.939Z,15.49
2019-05-17T02:55:27.871Z,15.44
2019-05-17T02:56:27.798Z,15.44
2019-05-17T02:57:27.728Z,15.57
2019-05-17T02:58:27.657Z,15.29
2019-05-17T02:59:27.586Z,15.02
2019-05-17T03:00:27.516Z,15.13
2019-05-17T03:01:27.444Z,14.98
2019-05-17T03:02:28.146Z,14.60
2019-05-17T03:03:27.304Z,14.50
2019-05-17T03:04:27.239Z,14.64
2019-05-17T03:05:27.162Z,14.70
2019-05-17T03:06:27.093Z,14.81
2019-05-17T03:07:27.025Z,14.95
2019-05-17T03:08:26.956Z,15.07
2019-05-17T03:09:26.877Z,14.98
2019-05-17T03:10:29.041Z,14.92
2019-05-17T03:11:26.743Z,14.83
2019-05-17T03:12:26.672Z,14.83
2019-05-17T03:13:26.608Z,14.91
2019-05-17T03:14:26.527Z,14.95
2019-05-17T03:15:26.455Z,15.06
2019-05-17T03:16:26.383Z,15.11
2019-05-17T03:17:26.315Z,15.10
2019-05-17T03:18:26.245Z,15.06
2019-05-17T03:19:26.171Z,15.03
2019-05-17T03:20:26.107Z,14.94
2019-05-17T03:21:26.036Z,14.91
2019-05-17T03:22:25.963Z,14.95
2019-05-17T03:23:25.893Z,14.94
2019-05-17T03:24:25.823Z,15.07
2019-05-17T03:25:25.749Z,14.99
2019-05-17T03:26:25.705Z,14.91
2019-05-17T03:27:25.609Z,14.80
2019-05-17T03:28:25.536Z,14.92
2019-05-17T03:29:25.464Z,14.78
2019-05-17T03:30:26.274Z,14.83
2019-05-17T03:31:26.854Z,14.72
2019-05-17T03:32:26.612Z,14.83
2019-05-17T03:33:26.853Z,14.91
2019-05-17T03:34:26.910Z,14.95
2019-05-17T03:35:26.994Z,15.06
2019-05-17T03:36:26.397Z,15.07
2019-05-17T03:37:29.950Z,15.11
2019-05-17T03:38:24.836Z,15.21
2019-05-17T03:39:24.763Z,15.16
2019-05-17T03:40:47.441Z,15.03
2019-05-17T03:41:28.977Z,14.75
2019-05-17T03:42:24.561Z,14.75
2019-05-17T03:43:24.475Z,14.77
2019-05-17T03:44:24.419Z,14.86
2019-05-17T03:45:24.333Z,14.96
2019-05-17T03:46:24.262Z,14.96
2019-05-17T03:47:24.194Z,14.91
2019-05-17T03:48:24.140Z,14.81
2019-05-17T03:49:45.035Z,14.81
2019-05-17T03:50:23.984Z,14.61
2019-05-17T03:51:23.913Z,14.62
2019-05-17T03:52:23.851Z,14.51
2019-05-17T03:53:23.767Z,14.61
2019-05-17T03:54:23.695Z,14.64
2019-05-17T03:55:23.750Z,14.35
2019-05-17T03:56:23.557Z,14.25
2019-05-17T03:57:24.119Z,14.37
2019-05-17T03:58:23.694Z,14.36
2019-05-17T03:59:24.312Z,14.24
2019-05-17T04:00:23.486Z,14.32
2019-05-17T04:01:23.449Z,14.29
2019-05-17T04:02:23.297Z,14.29
2019-05-17T04:03:23.356Z,14.36
2019-05-17T04:04:23.153Z,14.33
2019-05-17T04:05:22.955Z,14.42
2019-05-17T04:06:23.755Z,14.42
2019-05-17T04:07:23.582Z,14.33
2019-05-17T04:08:23.137Z,14.47
2019-05-17T04:09:22.706Z,14.46
2019-05-17T04:10:22.957Z,14.61
2019-05-17T04:11:31.163Z,14.55
2019-05-17T04:12:23.306Z,14.47
2019-05-17T04:13:23.518Z,14.36
2019-05-17T04:14:22.599Z,14.45
2019-05-17T04:15:24.060Z,14.40
2019-05-17T04:16:23.771Z,14.52
2019-05-17T04:17:22.802Z,14.50
2019-05-17T04:18:23.483Z,14.51
2019-05-17T04:19:22.952Z,14.54
2019-05-17T04:20:22.414Z,14.58
2019-05-17T04:21:23.473Z,14.54
2019-05-17T04:22:23.949Z,14.51
2019-05-17T04:23:23.225Z,14.29
2019-05-17T04:24:23.095Z,14.27
2019-05-17T04:25:23.406Z,14.10
2019-05-17T04:26:22.913Z,14.15
2019-05-17T04:27:22.962Z,14.18
2019-05-17T04:28:22.882Z,14.21
2019-05-17T04:29:22.675Z,14.27
2019-05-17T04:30:23.361Z,14.28
2019-05-17T04:31:22.825Z,14.33
2019-05-17T04:32:23.351Z,14.32
2019-05-17T04:33:23.305Z,14.36
2019-05-17T04:34:22.410Z,14.46
2019-05-17T04:35:23.352Z,14.51
2019-05-17T04:36:22.481Z,14.65
2019-05-17T04:37:22.916Z,14.61
2019-05-17T04:38:23.354Z,14.61
2019-05-17T04:39:22.641Z,14.43
2019-05-17T04:40:23.090Z,14.21
2019-05-17T04:41:36.188Z,14.28
2019-05-17T04:42:22.623Z,14.12
2019-05-17T04:43:23.076Z,14.04
2019-05-17T04:44:22.997Z,14.04
2019-05-17T04:45:23.137Z,14.14
2019-05-17T04:46:23.357Z,14.21
2019-05-17T04:47:22.961Z,14.18
2019-05-17T04:48:23.014Z,14.27
2019-05-17T04:49:19.795Z,14.18
2019-05-17T04:50:22.807Z,14.25
2019-05-17T04:51:19.653Z,14.09
2019-05-17T04:52:22.540Z,14.10
2019-05-17T04:53:19.508Z,13.96
2019-05-17T04:54:22.519Z,13.97
2019-05-17T04:55:19.365Z,13.92
2019-05-17T04:56:22.499Z,14.04
2019-05-17T04:57:19.225Z,14.00
2019-05-17T04:58:19.163Z,14.04
2019-05-17T04:59:19.083Z,14.06
2019-05-17T05:00:19.008Z,13.99
2019-05-17T05:01:18.945Z,14.04
2019-05-17T05:02:18.872Z,14.06
2019-05-17T05:03:18.800Z,14.22
2019-05-17T05:04:18.727Z,14.18
2019-05-17T05:05:18.665Z,14.25
2019-05-17T05:06:18.584Z,14.15
2019-05-17T05:07:18.514Z,14.27
2019-05-17T05:08:18.442Z,14.18
2019-05-17T05:09:18.379Z,14.32
2019-05-17T05:10:18.301Z,14.32
2019-05-17T05:11:18.229Z,14.40
2019-05-17T05:12:18.169Z,14.40
2019-05-17T05:13:18.087Z,14.25
2019-05-17T05:14:18.023Z,14.21
2019-05-17T05:15:17.950Z,14.21
2019-05-17T05:16:17.875Z,14.27
2019-05-17T05:17:17.803Z,14.36
2019-05-17T05:18:17.740Z,14.46
2019-05-17T05:19:17.656Z,14.55
2019-05-17T05:20:17.588Z,14.60
2019-05-17T05:21:17.517Z,14.62
2019-05-17T05:22:17.797Z,14.29
2019-05-17T05:23:17.373Z,14.22
2019-05-17T05:24:17.318Z,14.27
2019-05-17T05:25:17.233Z,14.21
2019-05-17T05:26:17.178Z,14.29
2019-05-17T05:27:17.093Z,14.35
2019-05-17T05:28:17.025Z,14.40
2019-05-17T05:29:16.946Z,14.51
2019-05-17T05:30:16.877Z,14.50
2019-05-17T05:31:16.805Z,14.35
2019-05-17T05:32:16.739Z,14.36
2019-05-17T05:33:16.668Z,14.28
2019-05-17T05:34:16.590Z,14.24
2019-05-17T05:35:16.523Z,14.35
2019-05-17T05:36:16.454Z,14.45
2019-05-17T05:37:16.383Z,14.58
2019-05-17T05:38:16.311Z,14.50
2019-05-17T05:39:16.241Z,14.52
2019-05-17T05:40:16.172Z,14.46
2019-05-17T05:41:16.103Z,14.35
2019-05-17T05:42:16.029Z,14.33
2019-05-17T05:43:15.960Z,14.33
2019-05-17T05:44:15.887Z,14.22
2019-05-17T05:45:15.814Z,14.28
2019-05-17T05:46:15.744Z,14.25
2019-05-17T05:47:15.672Z,14.25
2019-05-17T05:48:15.602Z,14.18
2019-05-17T05:49:15.533Z,14.21
2019-05-17T05:50:17.636Z,14.07
2019-05-17T05:51:15.389Z,13.99
2019-05-17T05:52:15.322Z,14.03
2019-05-17T05:53:15.250Z,14.10
2019-05-17T05:54:15.176Z,14.14
2019-05-17T05:55:15.129Z,14.21
2019-05-17T05:56:15.033Z,14.15
2019-05-17T05:57:14.958Z,14.12
2019-05-17T05:58:14.890Z,13.82
2019-05-17T05:59:14.825Z,13.85
2019-05-17T06:00:14.748Z,13.89
2019-05-17T06:01:14.678Z,13.95
2019-05-17T06:02:14.605Z,13.96
2019-05-17T06:03:14.535Z,14.02
2019-05-17T06:04:14.467Z,14.12
2019-05-17T06:05:17.215Z,14.15
2019-05-17T06:06:14.318Z,14.17
2019-05-17T06:07:14.247Z,14.14
2019-05-17T06:08:14.174Z,14.29
2019-05-17T06:09:14.107Z,14.28
2019-05-17T06:10:14.037Z,14.35
2019-05-17T06:11:13.965Z,14.35
2019-05-17T06:12:23.747Z,14.47
2019-05-17T06:13:13.824Z,14.57
2019-05-17T06:14:13.757Z,14.62
2019-05-17T06:15:13.694Z,14.72
2019-05-17T06:16:13.613Z,14.51
2019-05-17T06:17:13.541Z,14.54
2019-05-17T06:18:13.472Z,14.51
2019-05-17T06:19:13.401Z,14.64
2019-05-17T06:20:13.324Z,14.70
2019-05-17T06:21:13.256Z,14.68
2019-05-17T06:22:13.185Z,14.72
2019-05-17T06:23:13.115Z,14.64
2019-05-17T06:24:13.043Z,14.64
2019-05-17T06:25:15.548Z,14.70
2019-05-17T06:26:12.900Z,14.80
2019-05-17T06:27:12.832Z,14.86
2019-05-17T06:28:12.775Z,14.89
2019-05-17T06:29:12.690Z,15.02
2019-05-17T06:30:12.917Z,14.92
2019-05-17T06:31:15.041Z,14.94
2019-05-17T06:32:12.475Z,14.91
2019-05-17T06:33:26.766Z,14.84
2019-05-17T06:34:12.335Z,14.83
2019-05-17T06:35:12.718Z,14.83
2019-05-17T06:36:13.726Z,14.84
2019-05-17T06:37:13.341Z,14.75
2019-05-17T06:38:12.356Z,14.72
2019-05-17T06:39:11.988Z,14.70
2019-05-17T06:40:12.974Z,14.80
2019-05-17T06:41:12.649Z,14.70
2019-05-17T06:42:12.123Z,14.62
2019-05-17T06:43:12.977Z,14.69
2019-05-17T06:44:12.264Z,14.65
2019-05-17T06:45:12.446Z,14.57
2019-05-17T06:46:12.429Z,14.60
2019-05-17T06:47:12.084Z,14.58
2019-05-17T06:48:11.888Z,14.77
2019-05-17T06:49:11.870Z,14.84
2019-05-17T06:50:13.888Z,14.95
2019-05-17T06:51:11.823Z,15.02
2019-05-17T06:52:11.633Z,15.21
2019-05-17T06:53:12.264Z,15.19
2019-05-17T06:54:12.003Z,15.23
2019-05-17T06:55:12.845Z,15.20
2019-05-17T06:56:12.773Z,15.27
2019-05-17T06:57:12.801Z,15.35
2019-05-17T06:58:11.803Z,15.38
2019-05-17T06:59:10.564Z,15.36
2019-05-17T07:00:15.635Z,15.41
2019-05-17T07:01:10.425Z,15.51
2019-05-17T07:02:10.508Z,15.28
2019-05-17T07:03:10.285Z,15.29
2019-05-17T07:04:10.350Z,15.32
2019-05-17T07:05:10.144Z,15.29
2019-05-17T07:06:10.911Z,15.36
2019-05-17T07:07:10.809Z,15.36
2019-05-17T07:08:10.848Z,15.41
2019-05-17T07:09:10.181Z,15.36
2019-05-17T07:10:11.135Z,15.38
2019-05-17T07:11:09.885Z,15.31
2019-05-17T07:12:10.520Z,15.35
2019-05-17T07:13:10.591Z,15.31
2019-05-17T07:14:09.594Z,15.20
2019-05-17T07:15:10.784Z,15.16
2019-05-17T07:16:10.254Z,15.11
2019-05-17T07:17:09.824Z,15.16
2019-05-17T07:18:10.247Z,14.95
2019-05-17T07:19:10.388Z,15.02
2019-05-17T07:20:10.433Z,15.07
2019-05-17T07:21:10.068Z,15.07
2019-05-17T07:22:09.498Z,15.19
2019-05-17T07:23:10.663Z,15.14
2019-05-17T07:24:10.060Z,15.23
2019-05-17T07:25:10.772Z,15.20
2019-05-17T07:26:09.806Z,15.28
2019-05-17T07:27:09.967Z,15.34
2019-05-17T07:28:09.974Z,15.20
2019-05-17T07:29:10.038Z,15.28
2019-05-17T07:30:09.960Z,15.25
2019-05-17T07:31:10.121Z,15.34
2019-05-17T07:32:09.824Z,15.34
2019-05-17T07:33:10.069Z,15.44
2019-05-17T07:34:09.234Z,15.46
2019-05-17T07:35:10.417Z,15.50
2019-05-17T07:36:10.027Z,15.56
2019-05-17T07:37:10.197Z,15.68
2019-05-17T07:38:10.289Z,15.69
2019-05-17T07:39:10.588Z,15.75
2019-05-17T07:40:07.687Z,15.76
2019-05-17T07:41:09.936Z,15.78
2019-05-17T07:42:09.579Z,15.74
2019-05-17T07:43:13.650Z,15.71
2019-05-17T07:44:09.781Z,15.67
2019-05-17T07:45:09.806Z,15.65
2019-05-17T07:46:09.482Z,15.29
2019-05-17T07:47:09.619Z,15.14
2019-05-17T07:48:09.568Z,15.09
2019-05-17T07:49:07.055Z,15.23
2019-05-17T07:50:06.984Z,15.35
2019-05-17T07:51:06.921Z,15.39
2019-05-17T07:52:06.847Z,15.49
2019-05-17T07:53:06.775Z,15.27
2019-05-17T07:54:06.705Z,15.14
2019-05-17T07:55:06.649Z,15.19
2019-05-17T07:56:06.562Z,15.16
2019-05-17T07:57:06.495Z,15.20
2019-05-17T07:58:06.424Z,15.10
2019-05-17T07:59:06.358Z,15.21
2019-05-17T08:00:06.288Z,15.23
2019-05-17T08:01:06.218Z,15.36
2019-05-17T08:02:06.141Z,15.20
2019-05-17T08:03:06.075Z,15.14
2019-05-17T08:04:06.007Z,15.27
2019-05-17T08:05:05.936Z,15.17
2019-05-17T08:06:05.867Z,15.31
2019-05-17T08:07:05.812Z,15.36
2019-05-17T08:08:05.724Z,15.32
2019-05-17T08:09:05.662Z,15.39
2019-05-17T08:10:05.587Z,15.32
2019-05-17T08:11:05.523Z,15.34
2019-05-17T08:12:05.460Z,15.41
2019-05-17T08:13:05.375Z,15.32
2019-05-17T08:14:05.305Z,15.29
2019-05-17T08:15:05.232Z,15.19
2019-05-17T08:16:05.164Z,15.02
2019-05-17T08:17:05.098Z,14.92
2019-05-17T08:18:06.846Z,14.92
2019-05-17T08:19:04.957Z,14.99
2019-05-17T08:20:04.888Z,15.11
2019-05-17T08:21:04.822Z,15.19
2019-05-17T08:22:04.748Z,15.20
2019-05-17T08:23:05.278Z,15.31
2019-05-17T08:24:04.610Z,15.39
2019-05-17T08:25:04.548Z,15.41
2019-05-17T08:26:04.467Z,15.47
2019-05-17T08:27:04.393Z,15.44
2019-05-17T08:28:04.329Z,15.49
2019-05-17T08:29:04.255Z,15.60
2019-05-17T08:30:04.188Z,15.59
2019-05-17T08:31:04.126Z,15.71
2019-05-17T08:32:04.047Z,15.76
2019-05-17T08:33:03.983Z,15.87
2019-05-17T08:34:03.913Z,15.78
2019-05-17T08:35:03.836Z,15.82
2019-05-17T08:36:03.767Z,15.75
2019-05-17T08:37:03.703Z,15.75
2019-05-17T08:38:03.631Z,15.72
2019-05-17T08:39:03.553Z,15.76
2019-05-17T08:40:03.483Z,15.72
2019-05-17T08:41:03.420Z,15.51
2019-05-17T08:42:03.348Z,15.46
2019-05-17T08:43:03.276Z,15.39
2019-05-17T08:44:03.203Z,15.38
2019-05-17T08:45:03.138Z,15.36
2019-05-17T08:46:03.079Z,15.10
2019-05-17T08:47:02.999Z,15.09
2019-05-17T08:48:02.987Z,15.19
2019-05-17T08:49:02.857Z,15.14
2019-05-17T08:50:02.786Z,15.25
2019-05-17T08:51:02.721Z,15.14
2019-05-17T08:52:02.650Z,15.21
2019-05-17T08:53:02.587Z,15.29
2019-05-17T08:54:02.509Z,15.39
2019-05-17T08:55:02.435Z,15.47
2019-05-17T08:56:02.369Z,15.47
2019-05-17T08:57:02.300Z,15.46
2019-05-17T08:58:02.232Z,15.57
2019-05-17T08:59:02.162Z,15.35
2019-05-17T09:00:02.124Z,15.21
2019-05-17T09:01:02.017Z,15.06
2019-05-17T09:02:01.951Z,15.06
2019-05-17T09:03:01.882Z,15.03
2019-05-17T09:04:01.811Z,15.17
2019-05-17T09:05:01.748Z,15.13
2019-05-17T09:06:02.814Z,15.10
2019-05-17T09:07:03.224Z,15.14
2019-05-17T09:08:01.527Z,15.16
2019-05-17T09:09:01.462Z,15.20
2019-05-17T09:10:01.991Z,15.38
2019-05-17T09:11:01.322Z,15.38
2019-05-17T09:12:01.253Z,15.46
2019-05-17T09:13:01.178Z,15.51
2019-05-17T09:14:02.173Z,15.64
2019-05-17T09:15:01.053Z,15.68
2019-05-17T09:16:00.972Z,15.76
2019-05-17T09:17:00.901Z,15.83
2019-05-17T09:18:00.833Z,15.94
2019-05-17T09:19:00.765Z,16.01
2019-05-17T09:20:00.958Z,15.82
2019-05-17T09:21:00.624Z,15.76
2019-05-17T09:22:00.554Z,15.53
2019-05-17T09:23:00.484Z,15.50
2019-05-17T09:24:00.413Z,15.44
2019-05-17T09:25:00.343Z,15.44
2019-05-17T09:26:00.278Z,15.49
2019-05-17T09:27:00.206Z,15.47
2019-05-17T09:28:00.728Z,15.53
2019-05-17T09:29:01.390Z,15.49
2019-05-17T09:30:00.203Z,15.46
2019-05-17T09:31:00.208Z,15.49
2019-05-17T09:32:00.082Z,15.23
2019-05-17T09:33:00.396Z,15.25
2019-05-17T09:34:00.247Z,15.10
2019-05-17T09:35:00.358Z,15.27
2019-05-17T09:36:00.725Z,15.25
2019-05-17T09:37:00.272Z,15.39
2019-05-17T09:38:00.541Z,15.36
2019-05-17T09:39:00.085Z,15.44
2019-05-17T09:39:59.831Z,15.36
2019-05-17T09:40:59.917Z,15.39
2019-05-17T09:41:59.557Z,15.50
2019-05-17T09:43:00.568Z,15.60
2019-05-17T09:44:12.213Z,15.59
2019-05-17T09:45:00.359Z,15.65
2019-05-17T09:46:01.609Z,15.54
2019-05-17T09:46:59.488Z,15.60
2019-05-17T09:48:00.715Z,15.50
2019-05-17T09:49:01.197Z,15.53
2019-05-17T09:50:00.546Z,15.54
2019-05-17T09:50:59.988Z,15.59
2019-05-17T09:52:00.150Z,15.65
2019-05-17T09:53:00.034Z,15.69
2019-05-17T09:54:00.081Z,15.68
2019-05-17T09:55:00.454Z,15.57
2019-05-17T09:56:00.384Z,15.54
2019-05-17T09:57:00.280Z,15.53
2019-05-17T09:58:00.093Z,15.56
2019-05-17T09:59:00.236Z,15.59
2019-05-17T10:00:00.042Z,15.62
2019-05-17T10:01:01.052Z,15.67
2019-05-17T10:01:59.984Z,15.69
2019-05-17T10:02:59.902Z,15.54
2019-05-17T10:03:59.722Z,15.57
2019-05-17T10:04:59.649Z,15.54
2019-05-17T10:05:59.856Z,15.64
2019-05-17T10:06:59.356Z,15.65
2019-05-17T10:07:59.878Z,15.56
2019-05-17T10:08:57.264Z,15.47
2019-05-17T10:09:59.565Z,15.53
2019-05-17T10:11:05.842Z,15.39
2019-05-17T10:11:57.053Z,15.53
2019-05-17T10:12:56.985Z,15.57
2019-05-17T10:13:58.994Z,15.50
2019-05-17T10:14:56.871Z,15.44
2019-05-17T10:15:56.774Z,15.54
2019-05-17T10:16:56.701Z,15.53
2019-05-17T10:17:56.677Z,15.57
2019-05-17T10:18:56.564Z,15.38
2019-05-17T10:19:56.499Z,15.49
2019-05-17T10:20:56.425Z,15.38
2019-05-17T10:21:56.352Z,15.32
2019-05-17T10:22:56.284Z,15.34
2019-05-17T10:23:56.214Z,15.27
2019-05-17T10:24:56.143Z,15.31
2019-05-17T10:25:56.074Z,15.38
2019-05-17T10:26:56.006Z,15.50
2019-05-17T10:27:55.936Z,15.49
2019-05-17T10:28:55.874Z,15.53
2019-05-17T10:29:55.791Z,15.59
2019-05-17T10:30:55.723Z,15.50
2019-05-17T10:31:55.647Z,15.44
2019-05-17T10:32:55.579Z,15.46
2019-05-17T10:33:58.187Z,15.39
2019-05-17T10:34:55.444Z,15.28
2019-05-17T10:35:55.368Z,15.35
2019-05-17T10:36:55.295Z,15.36
2019-05-17T10:37:55.230Z,15.36
2019-05-17T10:38:55.171Z,15.36
2019-05-17T10:39:55.091Z,15.51
2019-05-17T10:40:55.018Z,15.50
2019-05-17T10:41:54.953Z,15.38
2019-05-17T10:42:54.878Z,15.44
2019-05-17T10:43:54.805Z,15.36
2019-05-17T10:44:54.952Z,15.36
2019-05-17T10:45:54.673Z,15.44
2019-05-17T10:46:54.599Z,15.35
2019-05-17T10:47:54.528Z,15.31
2019-05-17T10:48:54.456Z,15.17
2019-05-17T10:49:54.386Z,15.27
2019-05-17T10:50:54.317Z,15.34
2019-05-17T10:51:54.248Z,15.41
2019-05-17T10:52:54.179Z,15.29
2019-05-17T10:53:54.112Z,15.28
2019-05-17T10:54:54.037Z,15.39
2019-05-17T10:55:53.966Z,15.46
2019-05-17T10:56:53.900Z,15.56
2019-05-17T10:57:53.824Z,15.67
2019-05-17T10:58:53.755Z,15.54
2019-05-17T10:59:53.685Z,15.49
2019-05-17T11:00:53.616Z,15.43
2019-05-17T11:01:53.544Z,15.53
2019-05-17T11:02:53.477Z,15.54
2019-05-17T11:03:53.408Z,15.50
2019-05-17T11:04:53.336Z,15.50
2019-05-17T11:05:53.263Z,15.56
2019-05-17T11:06:53.201Z,15.57
2019-05-17T11:07:53.124Z,15.64
2019-05-17T11:08:53.055Z,15.68
2019-05-17T11:09:52.988Z,15.68
2019-05-17T11:10:52.916Z,15.71
2019-05-17T11:11:52.858Z,15.68
2019-05-17T11:12:52.771Z,15.68
2019-05-17T11:13:53.176Z,15.56
2019-05-17T11:15:09.825Z,15.57
2019-05-17T11:15:52.566Z,15.51
2019-05-17T11:16:52.492Z,15.60
2019-05-17T11:17:52.420Z,15.67
2019-05-17T11:18:52.355Z,15.78
2019-05-17T11:19:52.285Z,15.71
2019-05-17T11:20:52.239Z,15.75
2019-05-17T11:21:52.142Z,15.78
2019-05-17T11:22:52.077Z,15.94
2019-05-17T11:23:52.007Z,15.92
2019-05-17T11:24:51.931Z,16.04
2019-05-17T11:25:51.866Z,16.01
2019-05-17T11:26:51.800Z,15.96
2019-05-17T11:27:51.766Z,15.90
2019-05-17T11:28:51.656Z,15.89
2019-05-17T11:29:51.588Z,15.86
2019-05-17T11:30:51.514Z,15.82
2019-05-17T11:31:51.453Z,15.74
2019-05-17T11:32:51.381Z,15.74
2019-05-17T11:33:51.306Z,15.75
2019-05-17T11:34:51.239Z,15.82
2019-05-17T11:35:51.169Z,15.80
2019-05-17T11:36:51.094Z,15.80
2019-05-17T11:37:51.024Z,15.75
2019-05-17T11:38:50.963Z,15.71
2019-05-17T11:39:50.883Z,15.74
2019-05-17T11:40:50.818Z,15.78
2019-05-17T11:41:50.748Z,15.60
2019-05-17T11:42:50.688Z,15.69
2019-05-17T11:43:50.618Z,15.74
2019-05-17T11:44:50.551Z,15.86
2019-05-17T11:45:50.470Z,15.92
2019-05-17T11:46:50.401Z,16.00
2019-05-17T11:47:50.331Z,16.01
2019-05-17T11:48:50.269Z,16.07
2019-05-17T11:49:50.213Z,16.21
2019-05-17T11:50:50.123Z,16.21
2019-05-17T11:51:50.061Z,16.17
2019-05-17T11:52:49.984Z,16.24
2019-05-17T11:53:49.914Z,16.28
2019-05-17T11:54:49.900Z,16.38
2019-05-17T11:55:49.771Z,16.28
2019-05-17T11:56:49.704Z,16.27
2019-05-17T11:57:49.662Z,16.43
2019-05-17T11:58:49.568Z,16.38
2019-05-17T11:59:49.543Z,16.48
2019-05-17T12:00:49.433Z,16.45
2019-05-17T12:01:49.358Z,16.46
2019-05-17T12:02:49.291Z,16.52
2019-05-17T12:03:49.223Z,16.45
2019-05-17T12:04:49.146Z,16.48
2019-05-17T12:05:49.084Z,16.46
2019-05-17T12:06:49.010Z,16.42
2019-05-17T12:07:48.954Z,16.50
2019-05-17T12:08:48.875Z,16.49
2019-05-17T12:09:48.809Z,16.64
2019-05-17T12:10:48.822Z,16.56
2019-05-17T12:11:48.673Z,16.48
2019-05-17T12:12:48.600Z,16.42
2019-05-17T12:13:48.528Z,16.46
2019-05-17T12:14:48.458Z,16.30
2019-05-17T12:15:48.422Z,16.39
2019-05-17T12:16:48.325Z,16.35
2019-05-17T12:17:48.254Z,16.27
2019-05-17T12:18:48.187Z,16.39
2019-05-17T12:19:48.117Z,16.43
2019-05-17T12:20:48.047Z,16.56
2019-05-17T12:21:47.979Z,16.73
2019-05-17T12:22:47.918Z,16.68
2019-05-17T12:23:47.838Z,16.76
2019-05-17T12:24:47.770Z,16.73
2019-05-17T12:25:47.705Z,16.75
2019-05-17T12:26:47.713Z,16.75
2019-05-17T12:27:47.622Z,16.86
2019-05-17T12:28:47.491Z,16.73
2019-05-17T12:29:47.426Z,16.83
2019-05-17T12:30:47.359Z,16.88
2019-05-17T12:31:47.294Z,16.88
2019-05-17T12:32:47.214Z,16.78
2019-05-17T12:33:47.154Z,16.86
2019-05-17T12:34:47.088Z,16.78
2019-05-17T12:35:47.012Z,16.67
2019-05-17T12:36:46.948Z,16.73
2019-05-17T12:37:46.902Z,16.83
2019-05-17T12:38:46.810Z,16.64
2019-05-17T12:39:46.738Z,16.73
2019-05-17T12:40:46.675Z,16.76
2019-05-17T12:41:46.612Z,16.76
2019-05-17T12:42:46.533Z,16.76
2019-05-17T12:43:46.458Z,16.68
2019-05-17T12:44:46.389Z,16.75
2019-05-17T12:45:59.652Z,16.76
2019-05-17T12:46:46.252Z,16.70
2019-05-17T12:47:46.186Z,16.71
2019-05-17T12:48:46.120Z,16.73
2019-05-17T12:49:46.044Z,16.68
2019-05-17T12:50:45.973Z,16.58
2019-05-17T12:51:45.909Z,16.63